Time;durP1;ratioP1;P1;durP2;ratioP2;P2;SDS_P1;SDS_P2;PMS_P1;PMS_P2;Temp;Humidity;BMP_temperature;BMP_pressure;BME280_temperature;BME280_humidity;BME280_pressure;Samples;Min_cycle;Max_cycle;Signal;HPM_P1;HPM_P2
2022/10/14 00:01:29;;;;;;;118.32;29.10;;;10.60;99.90;;;;;;5016567;28;20193;-58
2022/10/14 00:03:55;;;;;;;142.90;28.35;;;10.50;99.90;;;;;;5012745;28;20223;-59
2022/10/14 00:06:27;;;;;;;75.13;26.65;;;10.50;99.90;;;;;;5014836;28;20188;-58
2022/10/14 00:08:53;;;;;;;51.08;30.58;;;10.40;99.90;;;;;;5015172;28;20304;-59
2022/10/14 00:11:22;;;;;;;37.85;28.98;;;10.30;99.90;;;;;;5015883;28;20173;-58
2022/10/14 00:13:48;;;;;;;38.55;30.38;;;10.30;99.90;;;;;;5014261;28;20187;-63
2022/10/14 00:16:20;;;;;;;38.00;30.35;;;10.30;99.90;;;;;;5012248;28;20538;-59
2022/10/14 00:18:46;;;;;;;40.00;31.77;;;10.40;99.90;;;;;;5014486;28;20590;-59
2022/10/14 00:21:12;;;;;;;38.17;30.00;;;10.40;99.90;;;;;;4999080;28;20267;-58
2022/10/14 00:23:38;;;;;;;41.60;32.60;;;10.50;99.90;;;;;;5015137;28;20189;-58
2022/10/14 00:26:04;;;;;;;46.05;34.85;;;10.50;99.90;;;;;;5010693;28;21078;-60
2022/10/14 00:28:31;;;;;;;45.00;34.65;;;10.50;99.90;;;;;;5015890;28;20235;-59
2022/10/14 00:30:59;;;;;;;44.58;32.75;;;10.50;99.90;;;;;;5016505;28;20618;-60
2022/10/14 00:33:26;;;;;;;50.95;35.35;;;10.50;99.90;;;;;;5015091;28;20203;-59
2022/10/14 00:35:57;;;;;;;44.83;33.70;;;10.50;99.90;;;;;;5012923;28;20180;-62
2022/10/14 00:38:29;;;;;;;38.15;29.80;;;10.50;99.90;;;;;;5013309;28;20196;-59
2022/10/14 00:40:55;;;;;;;50.63;32.33;;;10.50;99.90;;;;;;5015977;28;20192;-58
2022/10/14 00:43:22;;;;;;;45.10;31.88;;;10.50;99.90;;;;;;5014973;28;20181;-58
2022/10/14 00:45:48;;;;;;;81.05;34.33;;;10.50;99.90;;;;;;5013009;28;20229;-70
2022/10/14 00:48:16;;;;;;;50.08;34.47;;;10.60;99.90;;;;;;5010957;28;20220;-58
2022/10/14 00:50:47;;;;;;;61.08;34.38;;;10.60;99.90;;;;;;5015057;28;20185;-60
2022/10/14 00:53:14;;;;;;;53.10;34.75;;;10.60;99.90;;;;;;5015988;28;20184;-58
2022/10/14 00:55:41;;;;;;;95.50;33.55;;;10.60;99.90;;;;;;5012991;28;20272;-59
2022/10/14 00:58:10;;;;;;;87.07;32.47;;;10.50;99.90;;;;;;5011744;28;20255;-58
2022/10/14 01:00:38;;;;;;;84.78;33.60;;;10.50;99.90;;;;;;5014231;28;20598;-58
2022/10/14 01:03:09;;;;;;;66.15;31.13;;;10.50;99.90;;;;;;5016096;28;20183;-58
2022/10/14 01:05:43;;;;;;;105.22;31.20;;;10.50;99.90;;;;;;5015660;28;20184;-58
2022/10/14 01:08:32;;;;;;;98.47;29.25;;;10.50;99.90;;;;;;5029681;28;20629;-58
2022/10/14 01:11:08;;;;;;;205.48;29.42;;;10.50;99.90;;;;;;5015198;28;20177;-59
2022/10/14 01:13:40;;;;;;;220.82;28.63;;;10.50;99.90;;;;;;5015862;28;20193;-59
2022/10/14 01:16:32;;;;;;;151.05;28.48;;;10.50;99.90;;;;;;5015940;28;20239;-58
2022/10/14 01:19:25;;;;;;;134.13;27.08;;;10.50;99.90;;;;;;5008627;28;20181;-59
2022/10/14 01:21:57;;;;;;;171.00;27.98;;;10.50;99.90;;;;;;4996019;28;20195;-58
2022/10/14 01:24:29;;;;;;;131.48;28.63;;;10.50;99.90;;;;;;5011396;28;20184;-58
2022/10/14 01:27:13;;;;;;;102.60;29.58;;;10.50;99.90;;;;;;4979468;28;20184;-58
2022/10/14 01:30:03;;;;;;;67.07;28.17;;;10.50;99.90;;;;;;5011010;28;20212;-58
2022/10/14 01:32:33;;;;;;;97.65;28.52;;;10.50;99.90;;;;;;5013893;28;20204;-58
2022/10/14 01:35:21;;;;;;;48.53;28.05;;;10.60;99.90;;;;;;5013983;28;20180;-59
2022/10/14 01:37:59;;;;;;;51.70;29.48;;;10.50;99.90;;;;;;5013239;28;20961;-58
2022/10/14 01:40:51;;;;;;;54.78;30.60;;;10.60;99.90;;;;;;5024907;28;20641;-57
2022/10/14 01:43:21;;;;;;;40.53;27.92;;;10.60;99.90;;;;;;5014123;28;20268;-58
2022/10/14 01:45:49;;;;;;;42.33;28.67;;;10.60;99.90;;;;;;5014874;28;20260;-59
2022/10/14 01:48:17;;;;;;;43.00;29.20;;;10.70;99.90;;;;;;5013887;28;20232;-60
2022/10/14 01:50:47;;;;;;;40.97;29.45;;;10.70;99.90;;;;;;5010910;28;20198;-60
2022/10/14 01:53:19;;;;;;;42.83;29.25;;;10.70;99.90;;;;;;5012585;28;20664;-59
2022/10/14 01:55:46;;;;;;;43.33;29.10;;;10.70;99.90;;;;;;5013720;28;20539;-59
2022/10/14 01:58:17;;;;;;;40.53;28.27;;;10.80;99.90;;;;;;5015092;28;20177;-60
2022/10/14 02:00:43;;;;;;;48.20;29.95;;;10.80;99.90;;;;;;5012352;28;20608;-60
2022/10/14 02:03:12;;;;;;;48.20;29.58;;;10.80;99.90;;;;;;5010546;28;20188;-60
2022/10/14 02:05:43;;;;;;;46.85;28.55;;;10.80;99.90;;;;;;5013296;28;20180;-60
2022/10/14 02:08:35;;;;;;;45.97;30.13;;;10.70;99.90;;;;;;5029859;28;20350;-59
2022/10/14 02:11:11;;;;;;;46.25;29.98;;;10.70;99.90;;;;;;5012414;28;20245;-59
2022/10/14 02:14:02;;;;;;;46.20;30.42;;;10.70;99.90;;;;;;5010179;28;20630;-59
2022/10/14 02:16:37;;;;;;;54.05;33.20;;;10.70;99.90;;;;;;4997746;28;20188;-60
2022/10/14 02:19:13;;;;;;;60.85;36.03;;;10.60;99.90;;;;;;5013366;28;20296;-59
2022/10/14 02:21:40;;;;;;;62.17;35.75;;;10.60;99.90;;;;;;5027108;28;20187;-60
2022/10/14 02:24:20;;;;;;;71.03;37.95;;;10.60;99.90;;;;;;5025990;28;20182;-59
2022/10/14 02:26:48;;;;;;;66.85;38.55;;;10.60;99.90;;;;;;5013850;28;20638;-60
2022/10/14 02:29:17;;;;;;;70.60;39.47;;;10.60;99.90;;;;;;5014264;28;20204;-59
2022/10/14 02:31:44;;;;;;;72.63;40.70;;;10.50;99.90;;;;;;5014181;28;20630;-59
2022/10/14 02:34:16;;;;;;;67.50;39.28;;;10.60;99.90;;;;;;5011649;28;20237;-59
2022/10/14 02:36:45;;;;;;;69.32;40.05;;;10.70;99.90;;;;;;5013078;28;20188;-59
2022/10/14 02:39:15;;;;;;;71.50;39.83;;;10.70;99.90;;;;;;5014063;28;20276;-59
2022/10/14 02:41:41;;;;;;;68.10;38.20;;;10.70;99.90;;;;;;5028768;28;20268;-59
2022/10/14 02:44:07;;;;;;;70.28;40.92;;;10.80;99.90;;;;;;5009728;28;20812;-59
2022/10/14 02:46:34;;;;;;;77.57;42.25;;;10.70;99.90;;;;;;5010394;28;20223;-60
2022/10/14 02:49:00;;;;;;;71.63;41.22;;;10.80;99.90;;;;;;5011532;28;20227;-58
2022/10/14 02:51:26;;;;;;;75.65;41.15;;;10.80;99.90;;;;;;5014067;28;20238;-58
2022/10/14 02:53:51;;;;;;;74.15;41.45;;;10.80;99.90;;;;;;5012916;28;20671;-58
2022/10/14 02:56:18;;;;;;;74.00;42.65;;;10.80;99.90;;;;;;4978379;28;20255;-59
2022/10/14 02:58:43;;;;;;;86.10;44.08;;;10.80;99.90;;;;;;5001555;28;20188;-59
2022/10/14 03:01:10;;;;;;;79.45;45.45;;;10.80;99.90;;;;;;4996063;28;20531;-59
2022/10/14 03:03:37;;;;;;;85.78;47.55;;;10.90;99.90;;;;;;4995652;28;20185;-69
2022/10/14 03:06:03;;;;;;;86.93;47.58;;;10.90;99.90;;;;;;5009708;28;20319;-59
2022/10/14 03:08:29;;;;;;;89.93;47.47;;;10.90;99.90;;;;;;4992863;28;20224;-59
2022/10/14 03:10:57;;;;;;;88.55;47.35;;;10.90;99.90;;;;;;5005676;28;20185;-59
2022/10/14 03:13:24;;;;;;;87.03;47.65;;;10.90;99.90;;;;;;5011992;28;20689;-59
2022/10/14 03:15:50;;;;;;;93.88;49.20;;;10.90;99.90;;;;;;5008652;28;20327;-66
2022/10/14 03:18:17;;;;;;;95.18;50.92;;;10.90;99.90;;;;;;5012111;28;20192;-59
2022/10/14 03:20:46;;;;;;;95.97;48.00;;;10.90;99.90;;;;;;4996368;28;20185;-58
2022/10/14 03:23:17;;;;;;;92.53;49.60;;;11.00;99.90;;;;;;5004331;28;20283;-59
2022/10/14 03:25:45;;;;;;;96.55;50.63;;;11.00;99.90;;;;;;5005209;28;20189;-59
2022/10/14 03:28:20;;;;;;;97.18;50.33;;;11.00;99.90;;;;;;5010190;28;20208;-59
2022/10/14 03:30:56;;;;;;;95.53;48.45;;;11.00;99.90;;;;;;5012629;28;20626;-58
2022/10/14 03:33:51;;;;;;;98.47;50.63;;;11.10;99.90;;;;;;5011556;28;20188;-58
2022/10/14 03:36:17;;;;;;;110.88;52.53;;;11.10;99.90;;;;;;5010816;28;20184;-58
2022/10/14 03:38:46;;;;;;;104.15;53.03;;;11.10;99.90;;;;;;5012439;28;20188;-59
2022/10/14 03:41:23;;;;;;;105.13;52.85;;;11.10;99.90;;;;;;5006869;28;20283;-59
2022/10/14 03:43:51;;;;;;;108.95;53.47;;;11.10;99.90;;;;;;5009327;28;20203;-59
2022/10/14 03:46:17;;;;;;;107.57;52.72;;;11.20;99.90;;;;;;4996054;28;20192;-58
2022/10/14 03:48:43;;;;;;;112.97;51.78;;;11.20;99.90;;;;;;4994457;28;20516;-58
2022/10/14 03:51:09;;;;;;;110.97;54.33;;;11.20;99.90;;;;;;4995395;28;20184;-59
2022/10/14 03:53:35;;;;;;;121.97;54.95;;;11.20;99.90;;;;;;4993785;28;20664;-59
2022/10/14 03:56:01;;;;;;;127.28;55.35;;;11.20;99.90;;;;;;5006727;28;20187;-58
2022/10/14 03:58:29;;;;;;;135.45;56.95;;;11.20;99.90;;;;;;5007365;28;20275;-59
2022/10/14 04:01:00;;;;;;;154.52;60.15;;;11.20;99.90;;;;;;4995873;28;20173;-60
2022/10/14 04:03:46;;;;;;;128.05;57.42;;;11.30;99.90;;;;;;4997896;28;20184;-59
2022/10/14 04:06:13;;;;;;;139.35;58.88;;;11.30;99.90;;;;;;5011603;28;20241;-60
2022/10/14 04:08:40;;;;;;;135.52;58.53;;;11.30;99.90;;;;;;5006310;28;20712;-63
2022/10/14 04:11:17;;;;;;;135.15;57.75;;;11.30;99.90;;;;;;5006008;28;20199;-58
2022/10/14 04:13:44;;;;;;;141.65;57.05;;;11.30;99.90;;;;;;4994743;28;20177;-60
2022/10/14 04:16:10;;;;;;;139.63;58.10;;;11.30;99.90;;;;;;5011201;28;20183;-59
2022/10/14 04:18:53;;;;;;;152.02;58.40;;;11.40;99.90;;;;;;5006509;28;20189;-67
2022/10/14 04:21:21;;;;;;;161.68;58.70;;;11.40;99.90;;;;;;5027440;28;20611;-58
2022/10/14 04:23:49;;;;;;;162.43;58.78;;;11.40;99.90;;;;;;5011926;28;20196;-67
2022/10/14 04:26:16;;;;;;;136.98;56.55;;;11.40;99.90;;;;;;5011797;28;20244;-59
2022/10/14 04:28:44;;;;;;;159.63;57.55;;;11.40;99.90;;;;;;4992323;28;20230;-61
2022/10/14 04:31:25;;;;;;;147.85;57.13;;;11.40;99.90;;;;;;5005224;28;20199;-59
2022/10/14 04:33:58;;;;;;;138.20;56.22;;;11.40;99.90;;;;;;5010731;28;20271;-60
2022/10/14 04:36:30;;;;;;;154.95;54.67;;;11.40;99.90;;;;;;5011349;28;20558;-60
2022/10/14 04:38:58;;;;;;;156.27;56.50;;;11.50;99.90;;;;;;4992823;28;20642;-60
2022/10/14 04:41:24;;;;;;;167.05;55.40;;;11.50;99.90;;;;;;5010587;28;20246;-61
2022/10/14 04:43:51;;;;;;;167.57;54.40;;;11.50;99.90;;;;;;4996178;28;20188;-59
2022/10/14 04:46:31;;;;;;;155.60;52.13;;;11.50;99.90;;;;;;5015186;28;20223;-60
2022/10/14 04:48:57;;;;;;;133.40;50.85;;;11.60;99.90;;;;;;4994532;28;20220;-63
2022/10/14 04:51:27;;;;;;;146.73;53.85;;;11.50;99.90;;;;;;5009585;28;20235;-60
2022/10/14 04:54:11;;;;;;;146.13;50.28;;;11.50;99.90;;;;;;5019946;28;20624;-60
2022/10/14 04:56:49;;;;;;;135.13;49.60;;;11.50;99.90;;;;;;5015589;28;20196;-59
2022/10/14 04:59:15;;;;;;;149.43;49.25;;;11.50;99.90;;;;;;5019580;28;20556;-60
2022/10/14 05:02:19;;;;;;;143.18;50.65;;;11.50;99.90;;;;;;5000902;28;20192;-60
2022/10/14 05:04:50;;;;;;;134.30;48.38;;;11.50;99.90;;;;;;5012483;28;20189;-60
2022/10/14 05:07:16;;;;;;;144.48;50.58;;;11.50;99.90;;;;;;5030844;28;20189;-59
2022/10/14 05:09:44;;;;;;;146.45;51.15;;;11.50;99.90;;;;;;4995090;28;20582;-62
2022/10/14 05:12:22;;;;;;;172.88;51.55;;;11.50;99.90;;;;;;5022644;28;20642;-59
2022/10/14 05:14:53;;;;;;;157.20;52.38;;;11.50;99.90;;;;;;4995897;28;20192;-66
2022/10/14 05:17:25;;;;;;;166.88;49.50;;;11.50;99.90;;;;;;5009330;28;20193;-58
2022/10/14 05:19:51;;;;;;;184.38;50.58;;;11.50;99.90;;;;;;5010269;28;20192;-59
2022/10/14 05:22:19;;;;;;;163.77;50.60;;;11.50;99.90;;;;;;4997509;28;20185;-59
2022/10/14 05:24:45;;;;;;;170.63;50.25;;;11.60;99.90;;;;;;5010589;28;20181;-59
2022/10/14 05:27:12;;;;;;;152.95;49.55;;;11.60;99.90;;;;;;5010443;28;20201;-58
2022/10/14 05:29:38;;;;;;;174.90;49.30;;;11.60;99.90;;;;;;5027115;28;20712;-61
2022/10/14 05:32:04;;;;;;;163.98;49.75;;;11.60;99.90;;;;;;5006567;28;20180;-58
2022/10/14 05:34:40;;;;;;;184.35;50.53;;;11.60;99.90;;;;;;5014023;28;20243;-59
2022/10/14 05:37:09;;;;;;;168.52;48.17;;;11.60;99.90;;;;;;5014212;28;20185;-59
2022/10/14 05:39:42;;;;;;;177.77;49.47;;;11.60;99.90;;;;;;5013383;28;20172;-59
2022/10/14 05:42:10;;;;;;;172.45;48.75;;;11.60;99.90;;;;;;5023599;28;20196;-58
2022/10/14 05:44:36;;;;;;;159.20;47.95;;;11.70;99.90;;;;;;5012471;28;20228;-58
2022/10/14 05:47:03;;;;;;;206.27;48.53;;;11.70;99.90;;;;;;4998305;28;20181;-58
2022/10/14 05:49:29;;;;;;;177.00;47.50;;;11.60;99.90;;;;;;5012767;28;20279;-59
2022/10/14 05:51:56;;;;;;;186.38;47.70;;;11.70;99.90;;;;;;5012081;28;20188;-57
2022/10/14 05:54:23;;;;;;;155.32;45.75;;;11.70;99.90;;;;;;5010301;28;20181;-59
2022/10/14 05:56:51;;;;;;;160.30;43.47;;;11.60;99.90;;;;;;4993868;28;20554;-59
2022/10/14 05:59:18;;;;;;;178.13;46.25;;;11.70;99.90;;;;;;5003027;28;20243;-60
2022/10/14 06:01:44;;;;;;;146.27;40.95;;;11.70;99.90;;;;;;5025592;28;20197;-58
2022/10/14 06:04:18;;;;;;;144.63;42.88;;;11.70;99.90;;;;;;5010616;28;20211;-64
2022/10/14 06:06:44;;;;;;;127.88;40.88;;;11.70;99.90;;;;;;5024458;28;20185;-61
2022/10/14 06:09:10;;;;;;;122.78;40.70;;;11.70;99.90;;;;;;5006482;28;20216;-60
2022/10/14 06:11:36;;;;;;;131.02;41.03;;;11.70;99.90;;;;;;5000072;28;20189;-59
2022/10/14 06:14:02;;;;;;;121.40;39.47;;;11.70;99.90;;;;;;5011247;28;20189;-61
2022/10/14 06:16:28;;;;;;;139.23;40.33;;;11.70;99.90;;;;;;5012016;28;20235;-61
2022/10/14 06:18:54;;;;;;;125.57;38.10;;;11.70;99.90;;;;;;5005189;28;20189;-61
2022/10/14 06:21:20;;;;;;;112.38;38.40;;;11.70;99.90;;;;;;5012458;28;20791;-62
2022/10/14 06:23:46;;;;;;;125.72;39.78;;;11.70;99.90;;;;;;5010283;28;20572;-61
2022/10/14 06:26:12;;;;;;;124.22;39.47;;;11.70;99.90;;;;;;5011691;28;20227;-60
2022/10/14 06:28:37;;;;;;;136.77;41.45;;;11.80;99.90;;;;;;5009141;28;20756;-60
2022/10/14 06:31:03;;;;;;;134.40;38.60;;;11.70;99.90;;;;;;5012399;28;20192;-63
2022/10/14 06:33:29;;;;;;;129.63;39.55;;;11.80;99.90;;;;;;5006159;28;20193;-60
2022/10/14 06:35:56;;;;;;;131.43;39.22;;;11.80;99.90;;;;;;5003893;28;20189;-60
2022/10/14 06:38:22;;;;;;;137.35;42.10;;;11.80;99.90;;;;;;5007444;28;20221;-61
2022/10/14 06:40:51;;;;;;;127.47;36.53;;;11.80;99.90;;;;;;5012084;28;20197;-64
2022/10/14 06:43:18;;;;;;;122.82;36.10;;;11.90;99.90;;;;;;4991536;28;20190;-64
2022/10/14 06:45:44;;;;;;;116.45;34.58;;;11.90;99.90;;;;;;5012106;28;20248;-61
2022/10/14 06:48:09;;;;;;;106.85;34.08;;;11.90;99.90;;;;;;5009868;28;20329;-61
2022/10/14 06:50:35;;;;;;;97.32;32.38;;;11.90;99.90;;;;;;5010860;28;20194;-60
2022/10/14 06:53:01;;;;;;;121.50;32.95;;;11.90;99.90;;;;;;5009795;28;20193;-68
2022/10/14 06:55:27;;;;;;;101.97;31.10;;;11.90;99.90;;;;;;5009841;28;20189;-65
2022/10/14 06:57:53;;;;;;;94.00;30.35;;;12.00;99.90;;;;;;5013519;28;20188;-60
2022/10/14 07:00:20;;;;;;;97.22;29.70;;;12.00;99.90;;;;;;5011631;28;20184;-60
2022/10/14 07:02:45;;;;;;;92.85;28.73;;;12.00;99.90;;;;;;5027035;28;20192;-60
2022/10/14 07:05:11;;;;;;;86.60;28.15;;;12.00;99.90;;;;;;5007644;28;20187;-63
2022/10/14 07:07:38;;;;;;;78.60;27.67;;;12.10;99.90;;;;;;5012638;28;20680;-61
2022/10/14 07:10:04;;;;;;;79.28;28.10;;;12.10;99.90;;;;;;5010686;28;20219;-61
2022/10/14 07:12:29;;;;;;;73.60;24.85;;;12.10;99.90;;;;;;5012747;28;20199;-59
2022/10/14 07:14:55;;;;;;;69.43;24.02;;;12.10;99.90;;;;;;5010515;28;20185;-58
2022/10/14 07:17:21;;;;;;;75.00;26.20;;;12.20;99.90;;;;;;5011042;28;20193;-64
2022/10/14 07:19:47;;;;;;;77.30;25.02;;;12.20;99.90;;;;;;5008431;28;20193;-61
2022/10/14 07:22:13;;;;;;;77.00;26.48;;;12.20;99.90;;;;;;5011823;28;20642;-60
2022/10/14 07:24:38;;;;;;;74.18;26.10;;;12.20;99.90;;;;;;5011597;28;20283;-59
2022/10/14 07:27:07;;;;;;;69.43;26.02;;;12.30;99.90;;;;;;5011422;28;20635;-60
2022/10/14 07:29:32;;;;;;;79.45;27.23;;;12.30;99.90;;;;;;5009987;28;20346;-59
2022/10/14 07:31:58;;;;;;;77.15;27.10;;;12.30;99.90;;;;;;5007552;28;20208;-60
2022/10/14 07:34:24;;;;;;;81.10;28.10;;;12.30;99.90;;;;;;5011774;28;20220;-60
2022/10/14 07:36:50;;;;;;;84.72;28.55;;;12.30;99.90;;;;;;5012955;28;20251;-59
2022/10/14 07:39:15;;;;;;;77.60;28.35;;;12.30;99.90;;;;;;5010883;28;20278;-59
2022/10/14 07:41:41;;;;;;;92.20;29.58;;;12.40;99.90;;;;;;5011424;28;20180;-60
2022/10/14 07:44:08;;;;;;;84.38;29.83;;;12.40;99.90;;;;;;5007801;28;20188;-59
2022/10/14 07:46:36;;;;;;;84.20;29.73;;;12.40;99.90;;;;;;5012288;28;20199;-59
2022/10/14 07:49:11;;;;;;;88.15;31.23;;;12.40;99.90;;;;;;5008874;28;20220;-59
2022/10/14 07:51:38;;;;;;;84.88;32.17;;;12.50;99.90;;;;;;5013170;28;20180;-59
2022/10/14 07:54:08;;;;;;;117.55;33.15;;;12.50;99.90;;;;;;5008598;28;20263;-60
2022/10/14 07:56:35;;;;;;;97.00;31.17;;;12.50;99.90;;;;;;5010214;28;20188;-60
2022/10/14 07:59:02;;;;;;;90.15;31.30;;;12.50;99.90;;;;;;5010730;28;20180;-60
2022/10/14 08:01:28;;;;;;;118.07;33.47;;;12.60;99.90;;;;;;5013307;28;20184;-60
2022/10/14 08:03:54;;;;;;;106.50;35.05;;;12.60;99.90;;;;;;5004433;28;20208;-60
2022/10/14 08:06:20;;;;;;;109.13;32.90;;;12.60;99.90;;;;;;4992690;28;20185;-60
2022/10/14 08:08:45;;;;;;;129.52;33.45;;;12.60;99.90;;;;;;5010012;28;20216;-60
2022/10/14 08:11:15;;;;;;;121.05;35.53;;;12.70;99.90;;;;;;5010016;28;20207;-60
2022/10/14 08:13:41;;;;;;;115.60;35.58;;;12.70;99.90;;;;;;5009292;28;20184;-61
2022/10/14 08:16:22;;;;;;;113.05;35.55;;;12.70;99.90;;;;;;5010769;28;20240;-62
2022/10/14 08:18:48;;;;;;;118.80;36.53;;;12.70;99.90;;;;;;5007888;28;20195;-61
2022/10/14 08:21:15;;;;;;;122.57;37.53;;;12.80;99.90;;;;;;5012964;28;20185;-61
2022/10/14 08:23:41;;;;;;;115.80;35.47;;;12.80;99.90;;;;;;5015079;28;20646;-60
2022/10/14 08:26:31;;;;;;;126.80;35.13;;;12.80;99.90;;;;;;5017169;28;20176;-60
2022/10/14 08:28:58;;;;;;;107.50;34.55;;;12.80;99.90;;;;;;5008511;28;20232;-60
2022/10/14 08:31:24;;;;;;;122.78;35.45;;;12.90;99.90;;;;;;5013462;28;20659;-60
2022/10/14 08:33:50;;;;;;;119.47;35.50;;;12.90;99.90;;;;;;5014397;28;20283;-59
2022/10/14 08:36:16;;;;;;;143.23;35.70;;;12.90;99.90;;;;;;5015450;28;20212;-61
2022/10/14 08:38:42;;;;;;;97.97;32.08;;;13.00;99.90;;;;;;5014432;28;20271;-59
2022/10/14 08:41:08;;;;;;;111.18;32.35;;;13.00;99.90;;;;;;5013064;28;20669;-62
2022/10/14 08:43:37;;;;;;;110.25;32.88;;;13.00;99.90;;;;;;5012211;28;20181;-59
2022/10/14 08:46:26;;;;;;;133.73;34.33;;;13.00;99.90;;;;;;5012798;28;20728;-59
2022/10/14 08:49:04;;;;;;;108.72;32.90;;;13.10;99.90;;;;;;5014059;28;20212;-58
2022/10/14 08:51:31;;;;;;;112.68;34.05;;;13.00;99.90;;;;;;5014116;28;20185;-59
2022/10/14 08:54:07;;;;;;;131.77;36.30;;;13.10;99.90;;;;;;5012795;28;20760;-59
2022/10/14 08:56:36;;;;;;;144.93;38.97;;;13.10;99.90;;;;;;5015753;28;20191;-59
2022/10/14 08:59:09;;;;;;;128.35;36.47;;;13.20;99.90;;;;;;5010737;28;20189;-59
2022/10/14 09:01:46;;;;;;;128.73;34.38;;;13.20;99.90;;;;;;4996726;28;20177;-58
2022/10/14 09:04:13;;;;;;;144.68;34.97;;;13.20;99.90;;;;;;5000143;28;20247;-60
2022/10/14 09:06:44;;;;;;;146.40;35.78;;;13.30;99.90;;;;;;4998770;28;20177;-60
2022/10/14 09:09:33;;;;;;;127.50;35.15;;;13.30;99.90;;;;;;5014796;28;20239;-60
2022/10/14 09:12:04;;;;;;;134.55;35.50;;;13.30;99.90;;;;;;5016131;28;20180;-59
2022/10/14 09:14:36;;;;;;;176.07;38.13;;;13.40;99.90;;;;;;5013434;28;20180;-60
2022/10/14 09:17:14;;;;;;;185.43;38.85;;;13.40;99.90;;;;;;5014186;28;20179;-60
2022/10/14 09:20:10;;;;;;;158.38;36.97;;;13.40;99.90;;;;;;5013697;28;20543;-60
2022/10/14 09:22:36;;;;;;;155.15;37.72;;;13.50;99.90;;;;;;5014034;28;20203;-60
2022/10/14 09:25:01;;;;;;;134.60;36.53;;;13.50;99.90;;;;;;5013091;28;20709;-59
2022/10/14 09:27:28;;;;;;;139.90;35.53;;;13.60;99.90;;;;;;5013217;28;20189;-59
2022/10/14 09:30:00;;;;;;;129.05;33.45;;;13.60;99.90;;;;;;5010152;28;20240;-59
2022/10/14 09:32:51;;;;;;;131.63;32.58;;;13.70;99.90;;;;;;5012716;28;20185;-58
2022/10/14 09:35:33;;;;;;;123.72;33.90;;;13.70;99.90;;;;;;5011789;28;20211;-59
2022/10/14 09:37:59;;;;;;;102.38;33.20;;;13.80;99.90;;;;;;5013836;28;20188;-58
2022/10/14 09:40:36;;;;;;;115.53;31.90;;;13.80;99.90;;;;;;5012947;28;20568;-59
2022/10/14 09:43:04;;;;;;;121.10;32.13;;;13.80;99.90;;;;;;5014711;28;20243;-65
2022/10/14 09:45:45;;;;;;;109.78;31.17;;;13.90;99.90;;;;;;5013384;28;20239;-60
2022/10/14 09:48:17;;;;;;;104.22;31.15;;;13.90;99.90;;;;;;4995289;28;20177;-59
2022/10/14 09:50:50;;;;;;;114.90;31.10;;;13.90;99.90;;;;;;5008985;28;20187;-59
2022/10/14 09:53:27;;;;;;;116.85;31.38;;;13.90;99.90;;;;;;5013519;28;20176;-59
2022/10/14 09:56:04;;;;;;;102.65;30.23;;;14.00;99.90;;;;;;5015444;28;20190;-58
2022/10/14 09:58:46;;;;;;;98.90;29.40;;;14.00;99.90;;;;;;5013145;28;20262;-58
2022/10/14 10:01:26;;;;;;;140.80;30.40;;;14.00;99.90;;;;;;5011059;28;20184;-58
2022/10/14 10:03:53;;;;;;;109.43;28.13;;;14.00;99.90;;;;;;5012991;28;20207;-59
2022/10/14 10:06:26;;;;;;;106.32;26.40;;;14.10;99.90;;;;;;5014493;28;20176;-58
2022/10/14 10:08:52;;;;;;;103.38;28.65;;;14.10;99.90;;;;;;5012460;28;20227;-59
2022/10/14 10:11:28;;;;;;;100.35;25.80;;;14.10;99.90;;;;;;5012300;28;20197;-59
2022/10/14 10:13:54;;;;;;;85.10;23.73;;;14.10;99.90;;;;;;5011775;28;20188;-59
2022/10/14 10:16:30;;;;;;;94.38;23.85;;;14.10;99.90;;;;;;5013483;28;20189;-59
2022/10/14 10:19:00;;;;;;;84.63;23.40;;;14.10;99.90;;;;;;5010179;28;20609;-59
2022/10/14 10:21:29;;;;;;;70.38;23.17;;;14.20;99.90;;;;;;5011263;28;20654;-60
2022/10/14 10:24:00;;;;;;;71.43;23.08;;;14.20;99.90;;;;;;5010681;28;20184;-60
2022/10/14 10:26:31;;;;;;;76.03;24.30;;;14.20;99.90;;;;;;5010642;28;20176;-59
2022/10/14 10:29:01;;;;;;;72.70;24.23;;;14.30;99.90;;;;;;5022027;28;20228;-59
2022/10/14 10:31:59;;;;;;;83.47;25.23;;;14.30;99.90;;;;;;4994881;28;20700;-60
2022/10/14 10:34:33;;;;;;;80.97;25.55;;;14.30;99.90;;;;;;5009461;28;20226;-59
2022/10/14 10:37:27;;;;;;;100.85;27.15;;;14.30;99.90;;;;;;5013244;28;20183;-60
2022/10/14 10:40:25;;;;;;;83.00;25.80;;;14.40;99.90;;;;;;5004304;28;20711;-60
2022/10/14 10:43:18;;;;;;;78.03;26.40;;;14.40;99.90;;;;;;5010145;28;20184;-60
2022/10/14 10:45:48;;;;;;;75.47;25.67;;;14.40;99.90;;;;;;4995130;28;20300;-59
2022/10/14 10:48:21;;;;;;;93.70;28.88;;;14.40;99.90;;;;;;4994295;28;20679;-60
2022/10/14 10:50:54;;;;;;;82.13;26.98;;;14.50;99.90;;;;;;5013694;28;20230;-58
2022/10/14 10:53:38;;;;;;;73.72;26.00;;;14.50;99.90;;;;;;5009485;28;20813;-59
2022/10/14 10:56:17;;;;;;;91.13;28.40;;;14.50;99.90;;;;;;5013288;28;20338;-58
2022/10/14 10:59:05;;;;;;;78.18;26.23;;;14.50;99.90;;;;;;5009793;28;20188;-59
2022/10/14 11:01:52;;;;;;;73.60;25.30;;;14.60;99.90;;;;;;5011426;28;20280;-59
2022/10/14 11:04:25;;;;;;;63.20;23.08;;;14.60;99.90;;;;;;5012194;28;20184;-59
2022/10/14 11:13:41;;;;;;;73.70;26.50;;;14.70;99.90;;;;;;4992950;28;20188;-59
2022/10/14 11:16:27;;;;;;;70.18;26.50;;;14.70;99.90;;;;;;4982094;28;20201;-59
2022/10/14 11:19:20;;;;;;;72.63;25.77;;;14.70;99.90;;;;;;5005029;28;20335;-59
2022/10/14 11:22:18;;;;;;;70.38;26.90;;;14.80;99.90;;;;;;5011547;28;20195;-60
2022/10/14 11:24:59;;;;;;;80.55;28.23;;;14.80;99.90;;;;;;5005872;28;20192;-59
2022/10/14 11:27:40;;;;;;;77.90;27.52;;;14.80;99.90;;;;;;5011200;28;20271;-63
2022/10/14 11:30:17;;;;;;;68.55;26.40;;;14.90;99.90;;;;;;5007422;28;20224;-65
2022/10/14 11:32:54;;;;;;;72.70;27.30;;;14.90;99.90;;;;;;5012031;28;20192;-59
2022/10/14 11:35:23;;;;;;;74.28;26.52;;;14.90;99.90;;;;;;5010623;28;20201;-58
2022/10/14 11:37:58;;;;;;;61.03;25.58;;;14.90;99.90;;;;;;5013439;28;20184;-59
2022/10/14 11:40:34;;;;;;;59.10;25.23;;;14.90;99.90;;;;;;5010587;28;20274;-61
2022/10/14 11:43:21;;;;;;;62.45;25.80;;;14.90;99.90;;;;;;5011627;28;20222;-65
2022/10/14 11:46:09;;;;;;;64.00;26.08;;;14.90;99.90;;;;;;5013041;28;20227;-60
2022/10/14 11:48:47;;;;;;;51.58;24.55;;;14.90;99.90;;;;;;5010227;28;20282;-60
2022/10/14 11:51:41;;;;;;;45.05;20.33;;;15.00;99.90;;;;;;5011522;28;20188;-60
2022/10/14 11:54:27;;;;;;;36.67;18.90;;;14.90;99.90;;;;;;5006341;28;20283;-61
2022/10/14 11:57:03;;;;;;;39.60;20.15;;;14.90;99.90;;;;;;5012905;28;20188;-63
2022/10/14 11:59:47;;;;;;;42.30;20.08;;;15.00;99.90;;;;;;5011160;28;20267;-60
2022/10/14 12:02:24;;;;;;;43.30;19.98;;;15.10;99.90;;;;;;5011508;28;20579;-62
2022/10/14 12:05:08;;;;;;;36.08;19.10;;;15.10;99.90;;;;;;5009014;28;20211;-59
2022/10/14 12:07:41;;;;;;;35.28;18.73;;;15.20;99.90;;;;;;5012809;28;20172;-60
2022/10/14 12:10:22;;;;;;;34.38;17.60;;;15.30;99.90;;;;;;5009302;28;20291;-60
2022/10/14 12:12:49;;;;;;;38.38;18.70;;;15.40;99.90;;;;;;5027943;28;20180;-60
2022/10/14 12:15:22;;;;;;;36.00;18.98;;;15.50;99.90;;;;;;4993228;28;20181;-60
2022/10/14 12:17:58;;;;;;;35.67;19.25;;;15.60;99.90;;;;;;5008824;28;20304;-59
2022/10/14 12:20:37;;;;;;;33.35;17.83;;;15.70;99.90;;;;;;5009329;28;20188;-60
2022/10/14 12:23:07;;;;;;;34.35;18.45;;;15.70;99.90;;;;;;5011897;28;20599;-65
2022/10/14 12:26:14;;;;;;;35.47;18.00;;;15.70;99.90;;;;;;5011725;28;20185;-59
2022/10/14 12:28:41;;;;;;;21.48;12.57;;;15.70;99.90;;;;;;4987824;28;20208;-60
2022/10/14 12:31:27;;;;;;;19.63;11.02;;;15.80;99.90;;;;;;5007256;28;20256;-59
2022/10/14 12:34:14;;;;;;;14.73;7.97;;;15.80;99.90;;;;;;4998736;28;20191;-60
2022/10/14 12:36:48;;;;;;;17.98;6.75;;;15.70;99.90;;;;;;5009723;28;20617;-59
2022/10/14 12:39:17;;;;;;;10.82;6.32;;;15.70;99.90;;;;;;5019938;28;20191;-60
2022/10/14 12:42:03;;;;;;;9.10;5.75;;;15.70;99.90;;;;;;5006068;28;20177;-61
2022/10/14 12:44:34;;;;;;;9.68;5.75;;;15.70;99.90;;;;;;5017943;28;20319;-61
2022/10/14 12:47:02;;;;;;;12.93;6.18;;;15.70;99.90;;;;;;5011629;28;20184;-61
2022/10/14 12:49:32;;;;;;;8.15;4.30;;;15.80;99.90;;;;;;5008670;28;20211;-61
2022/10/14 12:52:01;;;;;;;9.02;4.47;;;15.80;99.90;;;;;;5011702;28;20263;-61
2022/10/14 12:54:28;;;;;;;8.93;4.30;;;15.80;99.90;;;;;;5009530;28;20618;-60